Orbital elements of SMOS
| Launched | 1 November 2009 |
| Flight ended | – |
| Launch site | Plesetsk Missile and Space Complex, Russia |
| Owner | European Space Agency |
| NORAD ID | 36036 |
| Alternative names |
SOIL MOISTURE AND OCEAN SALINITY |
| Date fetched |
Epoch osculation |
Inc. [°] |
Ecc. | RA asc node [hr] |
Arg Peri. [°] |
Mean anom [°] |
Mean motion [rev/day] |
Abs. mag |
| Date fetched |
Epoch osculation |
Inc. [°] |
Ecc. | RA asc node [hr] |
Arg Peri. [°] |
Mean anom [°] |
Mean motion [rev/day] |
Abs. mag |
| 2026 May 09 17:57 | 2026 May 09 11:31:27 | 98.4433 | 0.00012 | 21.1588 | 92.8883 | 267.2448 | 14.39752 | 6.743 |
| 2026 May 08 17:57 | 2026 May 08 05:30:06 | 98.4433 | 0.00012 | 21.0766 | 93.1853 | 267.2448 | 14.39752 | 6.743 |
| 2026 May 07 17:58 | 2026 May 07 06:09:03 | 98.4432 | 0.00012 | 21.0127 | 94.4625 | 267.2448 | 14.39752 | 6.743 |
| 2026 May 06 17:57 | 2026 May 06 11:48:13 | 98.4432 | 0.00012 | 20.9624 | 94.4441 | 267.2448 | 14.39752 | 6.743 |
| 2026 May 05 17:57 | 2026 May 05 10:47:05 | 98.4431 | 0.00012 | 20.8940 | 94.1158 | 267.2448 | 14.39752 | 6.743 |
| 2026 May 04 17:57 | 2026 May 04 11:26:02 | 98.4431 | 0.00012 | 20.8300 | 93.7743 | 267.2448 | 14.39752 | 6.743 |
| 2026 May 03 17:57 | 2026 May 03 12:04:59 | 98.4431 | 0.00012 | 20.7661 | 94.0136 | 267.2448 | 14.39752 | 6.743 |
| 2026 May 02 17:57 | 2026 May 02 11:03:51 | 98.4431 | 0.00012 | 20.6976 | 94.3931 | 267.2448 | 14.39752 | 6.743 |
| 2026 May 01 17:56 | 2026 May 01 11:42:48 | 98.4431 | 0.00012 | 20.6337 | 93.8015 | 267.2448 | 14.39752 | 6.743 |
| 2026 Apr 30 17:56 | 2026 Apr 30 12:21:45 | 98.4433 | 0.00012 | 20.5698 | 92.3020 | 267.2448 | 14.39752 | 6.743 |
| 2026 Apr 29 17:57 | 2026 Apr 29 13:00:41 | 98.4433 | 0.00012 | 20.5059 | 92.4652 | 267.2448 | 14.39752 | 6.743 |
| 2026 Apr 28 17:56 | 2026 Apr 28 11:59:33 | 98.4434 | 0.00012 | 20.4374 | 92.6648 | 267.2448 | 14.39752 | 6.743 |
| 2026 Apr 27 17:58 | 2026 Apr 27 10:58:25 | 98.4434 | 0.00012 | 20.3689 | 92.7870 | 267.2448 | 14.39752 | 6.743 |
| 2026 Apr 26 17:58 | 2026 Apr 26 11:37:22 | 98.4435 | 0.00012 | 20.3050 | 92.8136 | 267.2448 | 14.39752 | 6.743 |
| 2026 Apr 25 17:58 | 2026 Apr 25 10:36:14 | 98.4435 | 0.00012 | 20.2365 | 92.8357 | 267.2448 | 14.39752 | 6.743 |
| 2026 Apr 24 17:59 | 2026 Apr 24 12:55:15 | 98.4435 | 0.00012 | 20.1771 | 92.8340 | 267.2448 | 14.39752 | 6.743 |
| 2026 Apr 23 17:57 | 2026 Apr 23 00:13:35 | 98.4435 | 0.00012 | 20.0767 | 92.7583 | 267.2448 | 14.39752 | 6.743 |
| 2026 Apr 22 17:57 | 2026 Apr 21 18:12:13 | 98.4435 | 0.00012 | 19.9945 | 92.6045 | 267.2448 | 14.39752 | 6.743 |
| 2026 Apr 21 17:57 | 2026 Apr 21 09:51:50 | 98.4434 | 0.00012 | 19.9717 | 92.5745 | 267.2448 | 14.39752 | 6.743 |
| 2026 Apr 20 17:57 | 2026 Apr 20 10:30:47 | 98.4434 | 0.00012 | 19.9077 | 92.5653 | 267.2448 | 14.39752 | 6.743 |
| 2026 Apr 19 17:58 | 2026 Apr 19 06:09:29 | 98.4434 | 0.00012 | 19.8301 | 92.4358 | 267.2448 | 14.39752 | 6.743 |
| 2026 Apr 18 17:56 | 2026 Apr 17 19:07:54 | 98.4436 | 0.00012 | 19.7342 | 92.5151 | 267.2448 | 14.39752 | 6.743 |
| 2026 Apr 16 17:57 | 2026 Apr 15 23:45:55 | 98.4436 | 0.00011 | 19.6155 | 102.4106 | 267.2448 | 14.39752 | 6.743 |
| 2026 Apr 14 17:57 | 2026 Apr 14 11:04:19 | 98.4436 | 0.00011 | 19.5150 | 101.9315 | 267.2448 | 14.39752 | 6.743 |
| 2026 Apr 13 17:57 | 2026 Apr 13 06:43:05 | 98.4436 | 0.00011 | 19.4374 | 101.6460 | 267.2448 | 14.39752 | 6.743 |
| 2026 Apr 12 17:57 | 2026 Apr 12 12:22:17 | 98.4437 | 0.00011 | 19.3872 | 101.3897 | 267.2448 | 14.39752 | 6.743 |